createdAt,value
2023-05-16T00:01:59.116Z,72.06
2023-05-16T00:04:30.542Z,71.80
2023-05-16T00:07:01.942Z,71.89
2023-05-16T00:09:33.296Z,71.81
2023-05-16T00:12:04.915Z,71.93
2023-05-16T00:14:36.450Z,71.81
2023-05-16T00:17:11.962Z,72.14
2023-05-16T00:19:44.768Z,71.84
2023-05-16T00:22:16.516Z,72.06
2023-05-16T00:24:47.799Z,71.77
2023-05-16T00:27:19.390Z,72.07
2023-05-16T00:29:50.694Z,72.13
2023-05-16T00:32:22.482Z,72.47
2023-05-16T00:34:53.930Z,72.17
2023-05-16T00:37:25.327Z,72.18
2023-05-16T00:39:57.079Z,72.17
2023-05-16T00:42:28.390Z,71.81
2023-05-16T00:45:00.285Z,72.17
2023-05-16T00:47:31.881Z,72.34
2023-05-16T00:50:04.041Z,72.01
2023-05-16T00:52:36.073Z,71.97
2023-05-16T00:55:08.153Z,72.23
2023-05-16T00:57:40.445Z,72.39
2023-05-16T01:00:12.601Z,72.24
2023-05-16T01:02:44.395Z,72.40
2023-05-16T01:05:16.046Z,72.33
2023-05-16T01:07:47.359Z,72.28
2023-05-16T01:10:18.735Z,72.85
2023-05-16T01:13:01.165Z,72.61
2023-05-16T01:15:39.628Z,72.82
2023-05-16T01:18:30.825Z,72.65
2023-05-16T01:21:08.339Z,72.47
2023-05-16T01:24:09.545Z,72.69
2023-05-16T01:26:41.726Z,72.61
2023-05-16T01:29:13.186Z,72.74
2023-05-16T01:31:44.603Z,73.16
2023-05-16T01:34:16.036Z,73.13
2023-05-16T01:37:05.492Z,73.45
2023-05-16T01:39:52.974Z,73.56
2023-05-16T01:42:28.788Z,73.38
2023-05-16T01:45:18.596Z,74.17
2023-05-16T01:47:58.960Z,74.01
2023-05-16T01:50:34.099Z,74.27
2023-05-16T01:53:13.767Z,74.82
2023-05-16T01:55:46.947Z,75.03
2023-05-16T01:58:22.756Z,75.69
2023-05-16T02:00:55.385Z,75.67
2023-05-16T02:03:26.757Z,76.07
2023-05-16T02:05:58.481Z,76.26
2023-05-16T02:08:30.336Z,76.53
2023-05-16T02:11:01.668Z,77.11
2023-05-16T02:13:33.065Z,77.18
2023-05-16T02:16:04.480Z,77.31
2023-05-16T02:18:36.035Z,77.02
2023-05-16T02:21:07.337Z,76.88
2023-05-16T02:23:38.651Z,76.45
2023-05-16T02:26:09.997Z,76.63
2023-05-16T02:28:41.386Z,76.59
2023-05-16T02:31:13.005Z,76.19
2023-05-16T02:33:44.292Z,75.96
2023-05-16T02:36:16.113Z,76.46
2023-05-16T02:38:47.405Z,76.10
2023-05-16T02:41:19.032Z,76.04
2023-05-16T02:43:50.323Z,76.02
2023-05-16T02:46:22.824Z,76.18
2023-05-16T02:48:55.195Z,75.79
2023-05-16T02:51:27.852Z,76.33
2023-05-16T02:54:01.923Z,75.98
2023-05-16T02:56:33.229Z,75.59
2023-05-16T02:59:05.075Z,75.71
2023-05-16T03:01:36.402Z,75.95
2023-05-16T03:04:08.089Z,75.52
2023-05-16T03:06:39.560Z,75.59
2023-05-16T03:09:10.985Z,75.83
2023-05-16T03:11:42.518Z,75.93
2023-05-16T03:14:14.021Z,76.33
2023-05-16T03:16:45.526Z,76.71
2023-05-16T03:19:16.981Z,76.74
2023-05-16T03:21:48.298Z,77.17
2023-05-16T03:24:21.627Z,76.69
2023-05-16T03:26:53.046Z,76.77
2023-05-16T03:29:24.478Z,77.11
2023-05-16T03:31:55.919Z,76.57
2023-05-16T03:34:27.436Z,76.50
2023-05-16T03:36:58.834Z,76.83
2023-05-16T03:39:30.156Z,76.04
2023-05-16T03:42:01.424Z,76.56
2023-05-16T03:44:32.700Z,75.95
2023-05-16T03:47:04.413Z,76.46
2023-05-16T03:49:36.945Z,76.06
2023-05-16T03:52:08.483Z,75.89
2023-05-16T03:54:39.972Z,75.85
2023-05-16T03:57:11.230Z,76.11
2023-05-16T03:59:42.684Z,75.69
2023-05-16T04:02:14.048Z,75.70
2023-05-16T04:04:45.805Z,75.38
2023-05-16T04:07:17.277Z,75.57
2023-05-16T04:09:48.623Z,74.92
2023-05-16T04:12:20.092Z,74.78
2023-05-16T04:14:51.502Z,74.63
2023-05-16T04:17:22.925Z,74.75
2023-05-16T04:19:54.312Z,74.26
2023-05-16T04:22:26.089Z,74.65
2023-05-16T04:24:57.407Z,74.20
2023-05-16T04:27:28.963Z,74.48
2023-05-16T04:30:00.883Z,74.33
2023-05-16T04:32:35.213Z,74.61
2023-05-16T04:35:09.073Z,73.95
2023-05-16T04:37:40.516Z,73.75
2023-05-16T04:40:13.088Z,73.99
2023-05-16T04:42:44.412Z,73.04
2023-05-16T04:45:16.110Z,73.68
2023-05-16T04:47:47.458Z,73.08
2023-05-16T04:50:19.056Z,73.51
2023-05-16T04:52:50.480Z,72.95
2023-05-16T04:55:21.726Z,73.14
2023-05-16T04:57:53.112Z,73.01
2023-05-16T05:00:25.051Z,72.37
2023-05-16T05:02:56.609Z,72.22
2023-05-16T05:05:28.225Z,71.69
2023-05-16T05:08:00.712Z,71.42
2023-05-16T05:10:32.066Z,71.40
2023-05-16T05:13:03.368Z,71.06
2023-05-16T05:15:34.618Z,71.07
2023-05-16T05:18:06.272Z,71.30
2023-05-16T05:20:37.912Z,70.78
2023-05-16T05:23:09.561Z,70.45
2023-05-16T05:25:40.963Z,69.94
2023-05-16T05:28:12.387Z,69.42
2023-05-16T05:30:43.848Z,69.00
2023-05-16T05:33:18.688Z,68.44
2023-05-16T05:35:51.581Z,68.29
2023-05-16T05:38:23.167Z,67.92
2023-05-16T05:40:54.530Z,67.92
2023-05-16T05:43:25.846Z,67.57
2023-05-16T05:45:57.331Z,68.31
2023-05-16T05:48:29.894Z,68.05
2023-05-16T05:51:01.357Z,67.59
2023-05-16T05:53:32.617Z,67.36
2023-05-16T05:56:04.079Z,67.38
2023-05-16T05:58:36.611Z,67.55
2023-05-16T06:01:07.999Z,67.47
2023-05-16T06:03:39.617Z,66.92
2023-05-16T06:06:11.263Z,67.01
2023-05-16T06:08:42.519Z,66.19
2023-05-16T06:11:14.023Z,65.20
2023-05-16T06:13:45.335Z,64.78
2023-05-16T06:16:16.728Z,63.99
2023-05-16T06:18:48.921Z,63.83
2023-05-16T06:21:20.500Z,64.56
2023-05-16T06:23:51.827Z,62.73
2023-05-16T06:26:23.327Z,60.66
2023-05-16T06:28:54.826Z,60.68
2023-05-16T06:31:26.779Z,61.33
2023-05-16T06:33:58.157Z,61.93
2023-05-16T06:36:29.555Z,61.35
2023-05-16T06:39:00.888Z,61.76
2023-05-16T06:41:32.899Z,62.05
2023-05-16T06:44:04.989Z,61.39
2023-05-16T06:46:36.424Z,61.25
2023-05-16T06:49:07.922Z,61.36
2023-05-16T06:51:40.404Z,61.34
2023-05-16T06:54:11.727Z,60.32
2023-05-16T06:56:43.167Z,59.90
2023-05-16T06:59:14.586Z,59.79
2023-05-16T07:01:46.466Z,59.56
2023-05-16T07:04:18.140Z,58.82
2023-05-16T07:06:49.465Z,59.05
2023-05-16T07:09:21.263Z,58.28
2023-05-16T07:11:52.632Z,58.47
2023-05-16T07:14:24.268Z,58.00
2023-05-16T07:16:55.870Z,57.56
2023-05-16T07:19:27.453Z,56.85
2023-05-16T07:21:58.950Z,56.70
2023-05-16T07:24:30.414Z,56.66
2023-05-16T07:27:02.004Z,56.01
2023-05-16T07:29:33.542Z,56.26
2023-05-16T07:32:06.048Z,56.17
2023-05-16T07:34:37.381Z,55.49
2023-05-16T07:37:12.809Z,56.58
2023-05-16T07:39:44.151Z,56.33
2023-05-16T07:42:15.737Z,56.89
2023-05-16T07:44:47.215Z,56.85
2023-05-16T07:47:18.624Z,57.13
2023-05-16T07:49:50.065Z,56.77
2023-05-16T07:52:22.156Z,56.20
2023-05-16T07:54:53.569Z,55.68
2023-05-16T07:57:25.414Z,55.32
2023-05-16T07:59:56.959Z,55.48
2023-05-16T08:02:30.915Z,54.85
2023-05-16T08:05:02.930Z,54.46
2023-05-16T08:07:34.420Z,54.63
2023-05-16T08:10:06.276Z,53.90
2023-05-16T08:12:37.672Z,53.78
2023-05-16T08:15:09.431Z,53.82
2023-05-16T08:17:42.207Z,53.84
2023-05-16T08:20:13.844Z,53.17
2023-05-16T08:22:45.226Z,52.40
2023-05-16T08:25:16.623Z,51.66
2023-05-16T08:27:49.840Z,51.18
2023-05-16T08:30:21.284Z,50.53
2023-05-16T08:32:52.870Z,50.56
2023-05-16T08:35:24.452Z,50.29
2023-05-16T08:37:56.046Z,51.41
2023-05-16T08:40:28.284Z,51.19
2023-05-16T08:42:59.876Z,50.79
2023-05-16T08:45:31.320Z,50.05
2023-05-16T08:48:04.682Z,49.98
2023-05-16T08:50:36.636Z,49.77
2023-05-16T08:53:09.691Z,49.70
2023-05-16T08:55:41.493Z,50.07
2023-05-16T08:58:13.218Z,50.31
2023-05-16T09:00:45.338Z,50.99
2023-05-16T09:03:17.666Z,50.67
2023-05-16T09:05:50.037Z,50.48
2023-05-16T09:08:21.368Z,50.57
2023-05-16T09:10:52.747Z,50.16
2023-05-16T09:13:24.912Z,49.79
2023-05-16T09:16:14.130Z,49.74
2023-05-16T09:18:57.182Z,48.40
2023-05-16T09:21:31.949Z,49.42
2023-05-16T09:24:04.855Z,49.13
2023-05-16T09:26:38.313Z,49.06
2023-05-16T09:29:14.592Z,48.80
2023-05-16T09:31:46.019Z,48.63
2023-05-16T09:34:22.496Z,48.70
2023-05-16T09:36:56.947Z,47.82
2023-05-16T09:39:28.576Z,47.38
2023-05-16T09:42:00.000Z,47.35
2023-05-16T09:44:32.006Z,47.78
2023-05-16T09:47:03.440Z,47.60
2023-05-16T09:49:37.348Z,47.80
2023-05-16T09:52:09.717Z,47.69
2023-05-16T09:54:41.425Z,47.32
2023-05-16T09:57:12.724Z,47.32
2023-05-16T09:59:45.495Z,47.25
2023-05-16T10:02:19.048Z,47.14
2023-05-16T10:04:50.480Z,46.88
2023-05-16T10:07:22.255Z,46.91
2023-05-16T10:09:55.755Z,46.43
2023-05-16T10:12:30.353Z,45.90
2023-05-16T10:15:03.461Z,45.75
2023-05-16T10:17:39.777Z,45.58
2023-05-16T10:20:12.513Z,45.34
2023-05-16T10:22:45.974Z,45.64
2023-05-16T10:25:32.673Z,45.45
2023-05-16T10:28:05.113Z,45.59
2023-05-16T10:30:37.605Z,45.02
2023-05-16T10:33:09.247Z,45.06
2023-05-16T10:35:41.545Z,44.92
2023-05-16T10:38:16.281Z,45.42
2023-05-16T10:40:48.835Z,45.32
2023-05-16T10:43:30.262Z,44.76
2023-05-16T10:46:09.745Z,44.49
2023-05-16T10:48:42.204Z,44.11
2023-05-16T10:51:22.375Z,42.82
2023-05-16T10:53:55.045Z,44.14
2023-05-16T10:56:27.609Z,43.44
2023-05-16T10:58:58.998Z,44.04
2023-05-16T11:01:35.096Z,43.23
2023-05-16T11:04:08.999Z,43.37
2023-05-16T11:06:45.785Z,41.72
2023-05-16T11:09:17.065Z,41.23
2023-05-16T11:11:57.695Z,41.25
2023-05-16T11:14:34.871Z,41.80
2023-05-16T11:17:17.689Z,42.02
2023-05-16T11:19:50.093Z,41.40
2023-05-16T11:22:34.177Z,42.44
2023-05-16T11:25:07.269Z,43.30
2023-05-16T11:27:44.579Z,45.04
2023-05-16T11:30:19.284Z,45.72
2023-05-16T11:32:50.873Z,46.06
2023-05-16T11:35:22.351Z,46.56
2023-05-16T11:37:53.689Z,47.04
2023-05-16T11:40:26.748Z,47.00
2023-05-16T11:43:04.592Z,47.52
2023-05-16T11:45:37.379Z,47.16
2023-05-16T11:48:09.617Z,47.55
2023-05-16T11:50:41.340Z,48.53
2023-05-16T11:53:14.178Z,48.78
2023-05-16T11:55:49.066Z,48.87
2023-05-16T11:58:23.491Z,48.82
2023-05-16T12:00:55.643Z,48.84
2023-05-16T12:03:27.099Z,48.45
2023-05-16T12:05:58.939Z,47.72
2023-05-16T12:08:30.809Z,47.84
2023-05-16T12:11:02.282Z,48.19
2023-05-16T12:13:33.913Z,48.52
2023-05-16T12:16:05.981Z,49.22
2023-05-16T12:18:40.610Z,49.73
2023-05-16T12:21:14.199Z,50.14
2023-05-16T12:23:45.733Z,50.04
2023-05-16T12:26:25.585Z,49.95
2023-05-16T12:29:00.697Z,49.46
2023-05-16T12:31:36.719Z,49.17
2023-05-16T12:34:18.239Z,48.93
2023-05-16T12:36:53.931Z,49.27
2023-05-16T12:39:25.354Z,48.69
2023-05-16T12:41:56.665Z,46.66
2023-05-16T12:44:31.396Z,47.08
2023-05-16T12:47:02.984Z,47.72
2023-05-16T12:49:34.286Z,47.93
2023-05-16T12:52:05.814Z,48.32
2023-05-16T12:54:39.899Z,48.08
2023-05-16T12:57:11.348Z,47.74
2023-05-16T12:59:42.666Z,47.72
2023-05-16T13:02:14.071Z,47.32
2023-05-16T13:04:45.381Z,47.17
2023-05-16T13:07:17.536Z,47.66
2023-05-16T13:09:49.089Z,47.84
2023-05-16T13:12:21.828Z,47.39
2023-05-16T13:14:53.528Z,47.34
2023-05-16T13:17:25.004Z,46.50
2023-05-16T13:19:56.417Z,46.75
2023-05-16T13:22:27.718Z,46.49
2023-05-16T13:24:59.100Z,46.69
2023-05-16T13:27:30.778Z,46.63
2023-05-16T13:30:03.326Z,47.17
2023-05-16T13:32:34.676Z,47.59
2023-05-16T13:35:06.506Z,47.72
2023-05-16T13:37:37.958Z,46.59
2023-05-16T13:40:10.253Z,46.49
2023-05-16T13:42:41.855Z,45.78
2023-05-16T13:45:13.256Z,45.59
2023-05-16T13:47:46.754Z,45.59
2023-05-16T13:50:20.513Z,45.29
2023-05-16T13:52:52.178Z,45.35
2023-05-16T13:55:23.765Z,45.01
2023-05-16T13:57:55.274Z,44.87
2023-05-16T14:00:43.407Z,45.13
2023-05-16T14:03:16.753Z,45.98
2023-05-16T14:05:48.376Z,46.84
2023-05-16T14:08:19.696Z,47.30
2023-05-16T14:10:51.011Z,48.02
2023-05-16T14:13:22.338Z,48.41
2023-05-16T14:15:53.865Z,48.69
2023-05-16T14:18:25.249Z,48.70
2023-05-16T14:20:56.689Z,48.67
2023-05-16T14:23:28.217Z,49.11
2023-05-16T14:25:59.560Z,49.25
2023-05-16T14:28:32.683Z,49.36
2023-05-16T14:31:04.033Z,48.83
2023-05-16T14:33:35.641Z,49.23
2023-05-16T14:36:08.638Z,49.13
2023-05-16T14:38:40.121Z,48.84
2023-05-16T14:41:11.510Z,48.73
2023-05-16T14:43:44.704Z,48.32
2023-05-16T14:46:17.129Z,48.27
2023-05-16T14:48:48.574Z,48.21
2023-05-16T14:51:20.103Z,48.09
2023-05-16T14:53:51.457Z,47.68
2023-05-16T14:56:22.953Z,47.68
2023-05-16T14:58:54.293Z,47.38
2023-05-16T15:01:25.900Z,47.27
2023-05-16T15:03:57.267Z,47.70
2023-05-16T15:06:28.954Z,47.56
2023-05-16T15:09:00.425Z,47.13
2023-05-16T15:11:32.170Z,47.53
2023-05-16T15:14:06.323Z,47.10
2023-05-16T15:16:37.782Z,47.00
2023-05-16T15:19:09.388Z,47.02
2023-05-16T15:21:41.602Z,47.14
2023-05-16T15:24:13.114Z,47.36
2023-05-16T15:26:44.678Z,47.32
2023-05-16T15:29:17.420Z,47.58
2023-05-16T15:31:48.851Z,47.30
2023-05-16T15:34:20.400Z,47.59
2023-05-16T15:36:51.818Z,47.32
2023-05-16T15:39:25.831Z,47.41
2023-05-16T15:42:10.229Z,47.31
2023-05-16T15:44:42.682Z,47.01
2023-05-16T15:47:14.112Z,47.20
2023-05-16T15:49:45.560Z,46.83
2023-05-16T15:52:17.003Z,46.18
2023-05-16T15:54:48.308Z,45.53
2023-05-16T15:57:19.651Z,45.40
2023-05-16T15:59:51.136Z,45.48
2023-05-16T16:02:22.568Z,45.57
2023-05-16T16:04:54.060Z,46.16
2023-05-16T16:07:25.965Z,46.45
2023-05-16T16:09:59.428Z,46.86
2023-05-16T16:12:31.299Z,47.65
2023-05-16T16:15:06.460Z,48.11
2023-05-16T16:17:37.988Z,48.17
2023-05-16T16:20:09.856Z,48.22
2023-05-16T16:22:41.285Z,48.37
2023-05-16T16:25:13.017Z,48.60
2023-05-16T16:27:44.889Z,48.75
2023-05-16T16:30:16.236Z,48.96
2023-05-16T16:32:48.876Z,49.28
2023-05-16T16:35:20.673Z,49.34
2023-05-16T16:38:05.485Z,49.44
2023-05-16T16:40:37.902Z,49.49
2023-05-16T16:43:09.865Z,49.76
2023-05-16T16:45:41.436Z,50.00
2023-05-16T16:48:13.032Z,50.38
2023-05-16T16:50:44.439Z,50.41
2023-05-16T16:53:15.819Z,49.54
2023-05-16T16:55:47.275Z,50.23
2023-05-16T16:58:18.700Z,50.25
2023-05-16T17:00:50.113Z,50.42
2023-05-16T17:03:21.857Z,50.48
2023-05-16T17:05:53.416Z,50.80
2023-05-16T17:08:25.050Z,51.24
2023-05-16T17:10:56.633Z,51.16
2023-05-16T17:13:33.483Z,51.34
2023-05-16T17:16:05.285Z,52.00
2023-05-16T17:18:36.888Z,52.15
2023-05-16T17:21:09.231Z,52.40
2023-05-16T17:23:43.186Z,52.60
2023-05-16T17:26:16.572Z,53.04
2023-05-16T17:28:48.875Z,53.69
2023-05-16T17:31:20.321Z,54.00
2023-05-16T17:33:51.871Z,54.46
2023-05-16T17:36:23.271Z,54.79
2023-05-16T17:38:54.664Z,55.52
2023-05-16T17:41:26.141Z,55.42
2023-05-16T17:43:57.628Z,55.74
2023-05-16T17:46:29.143Z,55.91
2023-05-16T17:49:00.733Z,56.23
2023-05-16T17:51:53.077Z,56.72
2023-05-16T17:54:27.028Z,56.66
2023-05-16T17:57:00.334Z,57.00
2023-05-16T17:59:31.728Z,57.58
2023-05-16T18:02:03.974Z,58.75
2023-05-16T18:04:35.480Z,58.56
2023-05-16T18:07:06.977Z,58.94
2023-05-16T18:09:38.505Z,58.82
2023-05-16T18:12:10.224Z,59.12
2023-05-16T18:14:44.497Z,59.45
2023-05-16T18:17:17.172Z,59.52
2023-05-16T18:19:48.703Z,59.93
2023-05-16T18:22:20.969Z,60.24
2023-05-16T18:24:52.411Z,60.43
2023-05-16T18:27:23.775Z,60.47
2023-05-16T18:29:55.146Z,60.80
2023-05-16T18:32:26.646Z,61.12
2023-05-16T18:34:58.210Z,61.32
2023-05-16T18:37:29.576Z,60.97
2023-05-16T18:40:01.332Z,60.96
2023-05-16T18:42:32.668Z,61.51
2023-05-16T18:45:04.682Z,61.34
2023-05-16T18:47:36.145Z,61.58
2023-05-16T18:50:08.123Z,61.77
2023-05-16T18:52:40.634Z,62.38
2023-05-16T18:55:12.259Z,61.97
2023-05-16T18:57:45.204Z,62.27
2023-05-16T19:00:16.817Z,61.83
2023-05-16T19:02:48.243Z,62.19
2023-05-16T19:05:20.050Z,62.04
2023-05-16T19:07:51.532Z,62.27
2023-05-16T19:10:25.063Z,62.66
2023-05-16T19:12:56.729Z,62.71
2023-05-16T19:15:28.299Z,62.41
2023-05-16T19:17:59.947Z,62.53
2023-05-16T19:20:33.223Z,62.79
2023-05-16T19:23:04.589Z,62.28
2023-05-16T19:25:36.116Z,62.64
2023-05-16T19:28:07.526Z,62.38
2023-05-16T19:30:39.821Z,62.77
2023-05-16T19:33:11.470Z,63.07
2023-05-16T19:35:42.940Z,62.90
2023-05-16T19:38:14.358Z,63.41
2023-05-16T19:40:46.318Z,63.19
2023-05-16T19:43:17.631Z,63.10
2023-05-16T19:45:49.224Z,63.62
2023-05-16T19:48:21.010Z,63.91
2023-05-16T19:50:52.479Z,63.69
2023-05-16T19:53:23.888Z,63.46
2023-05-16T19:55:55.550Z,63.85
2023-05-16T19:58:26.904Z,63.51
2023-05-16T20:00:58.676Z,64.02
2023-05-16T20:03:30.330Z,63.88
2023-05-16T20:06:02.062Z,64.20
2023-05-16T20:08:33.518Z,64.42
2023-05-16T20:11:04.979Z,64.79
2023-05-16T20:13:36.310Z,64.69
2023-05-16T20:16:07.680Z,65.02
2023-05-16T20:18:39.134Z,64.72
2023-05-16T20:21:10.684Z,64.99
2023-05-16T20:23:42.017Z,64.71
2023-05-16T20:26:14.939Z,64.87
2023-05-16T20:28:46.309Z,64.65
2023-05-16T20:31:17.635Z,64.99
2023-05-16T20:33:49.994Z,65.21
2023-05-16T20:36:21.768Z,64.95
2023-05-16T20:38:53.123Z,65.24
2023-05-16T20:41:24.532Z,65.02
2023-05-16T20:43:56.184Z,65.04
2023-05-16T20:46:27.552Z,65.51
2023-05-16T20:48:58.948Z,66.03
2023-05-16T20:51:30.850Z,66.34
2023-05-16T20:54:02.432Z,65.88
2023-05-16T20:56:33.868Z,66.59
2023-05-16T20:59:05.204Z,66.87
2023-05-16T21:01:36.635Z,66.45
2023-05-16T21:04:08.040Z,66.62
2023-05-16T21:06:39.446Z,67.21
2023-05-16T21:09:10.933Z,67.34
2023-05-16T21:11:42.406Z,67.43
2023-05-16T21:14:14.007Z,67.37
2023-05-16T21:16:45.382Z,67.04
2023-05-16T21:19:16.957Z,67.12
2023-05-16T21:21:48.504Z,67.24
2023-05-16T21:24:19.943Z,67.47
2023-05-16T21:26:51.269Z,67.57
2023-05-16T21:29:22.633Z,67.96
2023-05-16T21:31:53.941Z,68.12
2023-05-16T21:34:25.662Z,67.98
2023-05-16T21:36:58.535Z,68.60
2023-05-16T21:39:29.839Z,68.79
2023-05-16T21:42:01.225Z,68.59
2023-05-16T21:44:32.568Z,68.48
2023-05-16T21:47:03.997Z,68.42
2023-05-16T21:49:35.900Z,68.38
2023-05-16T21:52:07.920Z,69.01
2023-05-16T21:54:39.373Z,68.79
2023-05-16T21:57:10.852Z,69.58
2023-05-16T21:59:42.266Z,69.44
2023-05-16T22:02:13.678Z,70.15
2023-05-16T22:04:45.097Z,70.08
2023-05-16T22:07:16.451Z,69.94
2023-05-16T22:09:50.828Z,70.02
2023-05-16T22:12:22.376Z,69.80
2023-05-16T22:14:53.786Z,69.95
2023-05-16T22:17:25.215Z,70.09
2023-05-16T22:19:56.692Z,70.36
2023-05-16T22:22:28.432Z,70.77
2023-05-16T22:24:59.791Z,70.76
2023-05-16T22:27:31.117Z,71.18
2023-05-16T22:30:02.460Z,70.58
2023-05-16T22:32:33.793Z,70.48
2023-05-16T22:35:05.521Z,71.36
2023-05-16T22:37:36.897Z,71.29
2023-05-16T22:40:08.998Z,70.96
2023-05-16T22:42:40.351Z,71.25
2023-05-16T22:45:11.706Z,71.42
2023-05-16T22:47:43.154Z,71.27
2023-05-16T22:50:14.497Z,71.56
2023-05-16T22:52:45.909Z,71.28
2023-05-16T22:55:17.273Z,71.73
2023-05-16T22:57:48.637Z,71.71
2023-05-16T23:00:22.705Z,72.28
2023-05-16T23:02:54.153Z,72.58
2023-05-16T23:05:25.916Z,72.24
2023-05-16T23:07:57.382Z,72.78
2023-05-16T23:10:28.904Z,72.83
2023-05-16T23:13:00.270Z,72.74
2023-05-16T23:15:31.663Z,73.26
2023-05-16T23:18:03.178Z,72.99
2023-05-16T23:20:34.788Z,73.17
2023-05-16T23:23:07.126Z,73.56
2023-05-16T23:25:38.578Z,73.69
2023-05-16T23:28:09.976Z,73.38
2023-05-16T23:30:41.314Z,73.96
2023-05-16T23:33:14.109Z,73.90
2023-05-16T23:35:45.692Z,73.74
2023-05-16T23:38:17.020Z,73.96
2023-05-16T23:40:48.333Z,73.98
2023-05-16T23:43:19.684Z,73.87
2023-05-16T23:45:51.020Z,74.41
2023-05-16T23:48:22.405Z,74.15
2023-05-16T23:50:53.782Z,74.44
2023-05-16T23:53:28.926Z,74.01
2023-05-16T23:56:00.312Z,74.30
2023-05-16T23:58:33.716Z,74.45
